sensor_id;sensor_type;location;lat;lon;timestamp;temperature;humidity
8008;DHT22;4049;49.468;11.200;2023-04-15T00:00:59;5.80;99.90
8008;DHT22;4049;49.468;11.200;2023-04-15T00:03:27;5.80;99.90
8008;DHT22;4049;49.468;11.200;2023-04-15T00:05:54;5.70;99.90
8008;DHT22;4049;49.468;11.200;2023-04-15T00:08:20;5.80;99.90
8008;DHT22;4049;49.468;11.200;2023-04-15T00:10:48;5.80;99.90
8008;DHT22;4049;49.468;11.200;2023-04-15T00:13:15;5.70;99.90
8008;DHT22;4049;49.468;11.200;2023-04-15T00:15:42;5.80;99.90
8008;DHT22;4049;49.468;11.200;2023-04-15T00:18:09;5.80;99.90
8008;DHT22;4049;49.468;11.200;2023-04-15T00:20:36;5.80;99.90
8008;DHT22;4049;49.468;11.200;2023-04-15T00:23:03;5.80;99.90
8008;DHT22;4049;49.468;11.200;2023-04-15T00:25:30;5.80;99.90
8008;DHT22;4049;49.468;11.200;2023-04-15T00:27:58;5.80;99.90
8008;DHT22;4049;49.468;11.200;2023-04-15T00:30:25;5.80;99.90
8008;DHT22;4049;49.468;11.200;2023-04-15T00:32:51;5.70;99.90
8008;DHT22;4049;49.468;11.200;2023-04-15T00:35:18;5.70;99.90
8008;DHT22;4049;49.468;11.200;2023-04-15T00:37:46;5.70;99.90
8008;DHT22;4049;49.468;11.200;2023-04-15T00:40:13;5.70;99.90
8008;DHT22;4049;49.468;11.200;2023-04-15T00:42:43;5.70;99.90
8008;DHT22;4049;49.468;11.200;2023-04-15T00:45:11;5.70;99.90
8008;DHT22;4049;49.468;11.200;2023-04-15T00:47:40;5.70;99.90
8008;DHT22;4049;49.468;11.200;2023-04-15T00:50:09;5.70;99.90
8008;DHT22;4049;49.468;11.200;2023-04-15T00:52:37;5.70;99.90
8008;DHT22;4049;49.468;11.200;2023-04-15T00:55:05;5.70;99.90
8008;DHT22;4049;49.468;11.200;2023-04-15T00:57:32;5.70;99.90
8008;DHT22;4049;49.468;11.200;2023-04-15T00:59:59;5.70;99.90
8008;DHT22;4049;49.468;11.200;2023-04-15T01:02:28;5.70;99.90
8008;DHT22;4049;49.468;11.200;2023-04-15T01:04:55;5.70;99.90
8008;DHT22;4049;49.468;11.200;2023-04-15T01:07:22;5.70;99.90
8008;DHT22;4049;49.468;11.200;2023-04-15T01:09:49;5.70;99.90
8008;DHT22;4049;49.468;11.200;2023-04-15T01:12:16;5.70;99.90
8008;DHT22;4049;49.468;11.200;2023-04-15T01:14:43;5.70;99.90
8008;DHT22;4049;49.468;11.200;2023-04-15T01:17:10;5.70;99.90
8008;DHT22;4049;49.468;11.200;2023-04-15T01:19:39;5.70;99.90
8008;DHT22;4049;49.468;11.200;2023-04-15T01:22:06;5.70;99.90
8008;DHT22;4049;49.468;11.200;2023-04-15T01:24:33;5.60;99.90
8008;DHT22;4049;49.468;11.200;2023-04-15T01:27:03;5.70;99.90
8008;DHT22;4049;49.468;11.200;2023-04-15T01:29:31;5.70;99.90
8008;DHT22;4049;49.468;11.200;2023-04-15T01:31:58;5.70;99.90
8008;DHT22;4049;49.468;11.200;2023-04-15T01:34:25;5.70;99.90
8008;DHT22;4049;49.468;11.200;2023-04-15T01:36:52;5.70;99.90
8008;DHT22;4049;49.468;11.200;2023-04-15T01:39:19;5.70;99.90
8008;DHT22;4049;49.468;11.200;2023-04-15T01:41:46;5.70;99.90
8008;DHT22;4049;49.468;11.200;2023-04-15T01:44:14;5.70;99.90
8008;DHT22;4049;49.468;11.200;2023-04-15T01:46:41;5.70;99.90
8008;DHT22;4049;49.468;11.200;2023-04-15T01:49:08;5.70;99.90
8008;DHT22;4049;49.468;11.200;2023-04-15T01:51:34;5.70;99.90
8008;DHT22;4049;49.468;11.200;2023-04-15T01:54:01;5.70;99.90
8008;DHT22;4049;49.468;11.200;2023-04-15T01:56:28;5.60;99.90
8008;DHT22;4049;49.468;11.200;2023-04-15T01:58:55;5.60;99.90
8008;DHT22;4049;49.468;11.200;2023-04-15T02:01:23;5.60;99.90
8008;DHT22;4049;49.468;11.200;2023-04-15T02:03:50;5.60;99.90
8008;DHT22;4049;49.468;11.200;2023-04-15T02:06:17;5.60;99.90
8008;DHT22;4049;49.468;11.200;2023-04-15T02:08:44;5.60;99.90
8008;DHT22;4049;49.468;11.200;2023-04-15T02:11:10;5.60;99.90
8008;DHT22;4049;49.468;11.200;2023-04-15T02:13:37;5.60;99.90
8008;DHT22;4049;49.468;11.200;2023-04-15T02:16:14;5.60;99.90
8008;DHT22;4049;49.468;11.200;2023-04-15T02:18:43;5.60;99.90
8008;DHT22;4049;49.468;11.200;2023-04-15T02:21:10;5.60;99.90
8008;DHT22;4049;49.468;11.200;2023-04-15T02:23:37;5.60;99.90
8008;DHT22;4049;49.468;11.200;2023-04-15T02:26:03;5.60;99.90
8008;DHT22;4049;49.468;11.200;2023-04-15T02:28:31;5.60;99.90
8008;DHT22;4049;49.468;11.200;2023-04-15T02:30:57;5.60;99.90
8008;DHT22;4049;49.468;11.200;2023-04-15T02:33:26;5.50;99.90
8008;DHT22;4049;49.468;11.200;2023-04-15T02:35:58;5.50;99.90
8008;DHT22;4049;49.468;11.200;2023-04-15T02:38:24;5.50;99.90
8008;DHT22;4049;49.468;11.200;2023-04-15T02:40:51;5.60;99.90
8008;DHT22;4049;49.468;11.200;2023-04-15T02:43:18;5.60;99.90
8008;DHT22;4049;49.468;11.200;2023-04-15T02:45:45;5.60;99.90
8008;DHT22;4049;49.468;11.200;2023-04-15T02:48:12;5.50;99.90
8008;DHT22;4049;49.468;11.200;2023-04-15T02:50:39;5.60;99.90
8008;DHT22;4049;49.468;11.200;2023-04-15T02:53:07;5.50;99.90
8008;DHT22;4049;49.468;11.200;2023-04-15T02:55:34;5.60;99.90
8008;DHT22;4049;49.468;11.200;2023-04-15T02:58:01;5.60;99.90
8008;DHT22;4049;49.468;11.200;2023-04-15T03:00:28;5.60;99.90
8008;DHT22;4049;49.468;11.200;2023-04-15T03:02:57;5.60;99.90
8008;DHT22;4049;49.468;11.200;2023-04-15T03:05:25;5.60;99.90
8008;DHT22;4049;49.468;11.200;2023-04-15T03:07:52;5.60;99.90
8008;DHT22;4049;49.468;11.200;2023-04-15T03:10:20;5.60;99.90
8008;DHT22;4049;49.468;11.200;2023-04-15T03:12:47;5.60;99.90
8008;DHT22;4049;49.468;11.200;2023-04-15T03:15:14;5.60;99.90
8008;DHT22;4049;49.468;11.200;2023-04-15T03:17:41;5.60;99.90
8008;DHT22;4049;49.468;11.200;2023-04-15T03:20:09;5.60;99.90
8008;DHT22;4049;49.468;11.200;2023-04-15T03:22:35;5.60;99.90
8008;DHT22;4049;49.468;11.200;2023-04-15T03:25:02;5.60;99.90
8008;DHT22;4049;49.468;11.200;2023-04-15T03:27:31;5.60;99.90
8008;DHT22;4049;49.468;11.200;2023-04-15T03:29:57;5.60;99.90
8008;DHT22;4049;49.468;11.200;2023-04-15T03:32:24;5.70;99.90
8008;DHT22;4049;49.468;11.200;2023-04-15T03:34:51;5.60;99.90
8008;DHT22;4049;49.468;11.200;2023-04-15T03:37:18;5.60;99.90
8008;DHT22;4049;49.468;11.200;2023-04-15T03:39:45;5.60;99.90
8008;DHT22;4049;49.468;11.200;2023-04-15T03:42:12;5.60;99.90
8008;DHT22;4049;49.468;11.200;2023-04-15T03:44:40;5.60;99.90
8008;DHT22;4049;49.468;11.200;2023-04-15T03:47:07;5.60;99.90
8008;DHT22;4049;49.468;11.200;2023-04-15T03:49:34;5.60;99.90
8008;DHT22;4049;49.468;11.200;2023-04-15T03:52:01;5.60;99.90
8008;DHT22;4049;49.468;11.200;2023-04-15T03:54:28;5.60;99.90
8008;DHT22;4049;49.468;11.200;2023-04-15T03:56:55;5.60;99.90
8008;DHT22;4049;49.468;11.200;2023-04-15T03:59:22;5.60;99.90
8008;DHT22;4049;49.468;11.200;2023-04-15T04:01:51;5.60;99.90
8008;DHT22;4049;49.468;11.200;2023-04-15T04:04:18;5.60;99.90
8008;DHT22;4049;49.468;11.200;2023-04-15T04:06:44;5.60;99.90
8008;DHT22;4049;49.468;11.200;2023-04-15T04:09:11;5.60;99.90
8008;DHT22;4049;49.468;11.200;2023-04-15T04:11:38;5.60;99.90
8008;DHT22;4049;49.468;11.200;2023-04-15T04:14:05;5.60;99.90
8008;DHT22;4049;49.468;11.200;2023-04-15T04:16:32;5.60;99.90
8008;DHT22;4049;49.468;11.200;2023-04-15T04:19:00;5.60;99.90
8008;DHT22;4049;49.468;11.200;2023-04-15T04:21:27;5.60;99.90
8008;DHT22;4049;49.468;11.200;2023-04-15T04:23:55;5.60;99.90
8008;DHT22;4049;49.468;11.200;2023-04-15T04:26:23;5.60;99.90
8008;DHT22;4049;49.468;11.200;2023-04-15T04:28:50;5.60;99.90
8008;DHT22;4049;49.468;11.200;2023-04-15T04:31:17;5.60;99.90
8008;DHT22;4049;49.468;11.200;2023-04-15T04:33:44;5.60;99.90
8008;DHT22;4049;49.468;11.200;2023-04-15T04:36:12;5.60;99.90
8008;DHT22;4049;49.468;11.200;2023-04-15T04:38:39;5.60;99.90
8008;DHT22;4049;49.468;11.200;2023-04-15T04:41:05;5.60;99.90
8008;DHT22;4049;49.468;11.200;2023-04-15T04:43:32;5.60;99.90
8008;DHT22;4049;49.468;11.200;2023-04-15T04:45:59;5.60;99.90
8008;DHT22;4049;49.468;11.200;2023-04-15T04:48:26;5.60;99.90
8008;DHT22;4049;49.468;11.200;2023-04-15T04:50:53;5.60;99.90
8008;DHT22;4049;49.468;11.200;2023-04-15T04:53:21;5.60;99.90
8008;DHT22;4049;49.468;11.200;2023-04-15T04:55:48;5.60;99.90
8008;DHT22;4049;49.468;11.200;2023-04-15T04:58:15;5.70;99.90
8008;DHT22;4049;49.468;11.200;2023-04-15T05:00:42;5.70;99.90
8008;DHT22;4049;49.468;11.200;2023-04-15T05:03:09;5.70;99.90
8008;DHT22;4049;49.468;11.200;2023-04-15T05:05:35;5.60;99.90
8008;DHT22;4049;49.468;11.200;2023-04-15T05:08:04;5.70;99.90
8008;DHT22;4049;49.468;11.200;2023-04-15T05:10:32;5.70;99.90
8008;DHT22;4049;49.468;11.200;2023-04-15T05:12:59;5.70;99.90
8008;DHT22;4049;49.468;11.200;2023-04-15T05:15:26;5.70;99.90
8008;DHT22;4049;49.468;11.200;2023-04-15T05:17:53;5.70;99.90
8008;DHT22;4049;49.468;11.200;2023-04-15T05:20:20;5.70;99.90
8008;DHT22;4049;49.468;11.200;2023-04-15T05:22:47;5.70;99.90
8008;DHT22;4049;49.468;11.200;2023-04-15T05:25:16;5.70;99.90
8008;DHT22;4049;49.468;11.200;2023-04-15T05:27:44;5.70;99.90
8008;DHT22;4049;49.468;11.200;2023-04-15T05:30:11;5.70;99.90
8008;DHT22;4049;49.468;11.200;2023-04-15T05:32:39;5.70;99.90
8008;DHT22;4049;49.468;11.200;2023-04-15T05:35:06;5.70;99.90
8008;DHT22;4049;49.468;11.200;2023-04-15T05:37:33;5.80;99.90
8008;DHT22;4049;49.468;11.200;2023-04-15T05:40:00;5.80;99.90
8008;DHT22;4049;49.468;11.200;2023-04-15T05:42:28;5.80;99.90
8008;DHT22;4049;49.468;11.200;2023-04-15T05:44:57;5.80;99.90
8008;DHT22;4049;49.468;11.200;2023-04-15T05:47:24;5.80;99.90
8008;DHT22;4049;49.468;11.200;2023-04-15T05:49:50;5.80;99.90
8008;DHT22;4049;49.468;11.200;2023-04-15T05:52:17;5.80;99.90
8008;DHT22;4049;49.468;11.200;2023-04-15T05:54:44;5.80;99.90
8008;DHT22;4049;49.468;11.200;2023-04-15T05:57:11;5.80;99.90
8008;DHT22;4049;49.468;11.200;2023-04-15T05:59:37;5.90;99.90
8008;DHT22;4049;49.468;11.200;2023-04-15T06:02:08;5.90;99.90
8008;DHT22;4049;49.468;11.200;2023-04-15T06:04:36;5.80;99.90
8008;DHT22;4049;49.468;11.200;2023-04-15T06:07:03;5.80;99.90
8008;DHT22;4049;49.468;11.200;2023-04-15T06:09:30;5.90;99.90
8008;DHT22;4049;49.468;11.200;2023-04-15T06:11:58;5.90;99.90
8008;DHT22;4049;49.468;11.200;2023-04-15T06:14:26;5.90;99.90
8008;DHT22;4049;49.468;11.200;2023-04-15T06:16:52;5.90;99.90
8008;DHT22;4049;49.468;11.200;2023-04-15T06:19:21;5.90;99.90
8008;DHT22;4049;49.468;11.200;2023-04-15T06:21:48;6.00;99.90
8008;DHT22;4049;49.468;11.200;2023-04-15T06:24:14;6.00;99.90
8008;DHT22;4049;49.468;11.200;2023-04-15T06:26:41;6.00;99.90
8008;DHT22;4049;49.468;11.200;2023-04-15T06:29:08;6.00;99.90
8008;DHT22;4049;49.468;11.200;2023-04-15T06:31:35;6.10;99.90
8008;DHT22;4049;49.468;11.200;2023-04-15T06:34:02;6.10;99.90
8008;DHT22;4049;49.468;11.200;2023-04-15T06:36:30;6.10;99.90
8008;DHT22;4049;49.468;11.200;2023-04-15T06:38:57;6.20;99.90
8008;DHT22;4049;49.468;11.200;2023-04-15T06:41:24;6.20;99.90
8008;DHT22;4049;49.468;11.200;2023-04-15T06:43:51;6.20;99.90
8008;DHT22;4049;49.468;11.200;2023-04-15T06:46:17;6.20;99.90
8008;DHT22;4049;49.468;11.200;2023-04-15T06:48:44;6.30;99.90
8008;DHT22;4049;49.468;11.200;2023-04-15T06:51:11;6.30;99.90
8008;DHT22;4049;49.468;11.200;2023-04-15T06:53:40;6.40;99.90
8008;DHT22;4049;49.468;11.200;2023-04-15T06:56:08;6.40;99.90
8008;DHT22;4049;49.468;11.200;2023-04-15T06:58:35;6.40;99.90
8008;DHT22;4049;49.468;11.200;2023-04-15T07:01:02;6.50;99.90
8008;DHT22;4049;49.468;11.200;2023-04-15T07:03:30;6.50;99.90
8008;DHT22;4049;49.468;11.200;2023-04-15T07:05:57;6.50;99.90
8008;DHT22;4049;49.468;11.200;2023-04-15T07:08:26;6.50;99.90
8008;DHT22;4049;49.468;11.200;2023-04-15T07:10:54;6.60;99.90
8008;DHT22;4049;49.468;11.200;2023-04-15T07:13:21;6.60;99.90
8008;DHT22;4049;49.468;11.200;2023-04-15T07:15:48;6.70;99.90
8008;DHT22;4049;49.468;11.200;2023-04-15T07:18:15;6.70;99.90
8008;DHT22;4049;49.468;11.200;2023-04-15T07:20:42;6.70;99.90
8008;DHT22;4049;49.468;11.200;2023-04-15T07:23:08;6.70;99.90
8008;DHT22;4049;49.468;11.200;2023-04-15T07:25:35;6.80;99.90
8008;DHT22;4049;49.468;11.200;2023-04-15T07:28:04;6.80;99.90
8008;DHT22;4049;49.468;11.200;2023-04-15T07:30:30;6.90;99.90
8008;DHT22;4049;49.468;11.200;2023-04-15T07:32:57;6.90;99.90
8008;DHT22;4049;49.468;11.200;2023-04-15T07:35:24;7.00;99.90
8008;DHT22;4049;49.468;11.200;2023-04-15T07:37:52;7.00;99.90
8008;DHT22;4049;49.468;11.200;2023-04-15T07:40:18;7.10;99.90
8008;DHT22;4049;49.468;11.200;2023-04-15T07:42:46;7.10;99.90
8008;DHT22;4049;49.468;11.200;2023-04-15T07:45:15;7.10;99.90
8008;DHT22;4049;49.468;11.200;2023-04-15T07:47:42;7.20;99.90
8008;DHT22;4049;49.468;11.200;2023-04-15T07:50:09;7.20;99.90
8008;DHT22;4049;49.468;11.200;2023-04-15T07:52:36;7.20;99.90
8008;DHT22;4049;49.468;11.200;2023-04-15T07:55:04;7.20;99.90
8008;DHT22;4049;49.468;11.200;2023-04-15T07:57:32;7.20;99.90
8008;DHT22;4049;49.468;11.200;2023-04-15T07:59:59;7.30;99.90
8008;DHT22;4049;49.468;11.200;2023-04-15T08:02:28;7.30;99.90
8008;DHT22;4049;49.468;11.200;2023-04-15T08:04:54;7.30;99.90
8008;DHT22;4049;49.468;11.200;2023-04-15T08:07:22;7.30;99.90
8008;DHT22;4049;49.468;11.200;2023-04-15T08:09:49;7.30;99.90
8008;DHT22;4049;49.468;11.200;2023-04-15T08:12:16;7.40;99.90
8008;DHT22;4049;49.468;11.200;2023-04-15T08:14:43;7.40;99.90
8008;DHT22;4049;49.468;11.200;2023-04-15T08:17:10;7.40;99.90
8008;DHT22;4049;49.468;11.200;2023-04-15T08:19:39;7.40;99.90
8008;DHT22;4049;49.468;11.200;2023-04-15T08:22:07;7.40;99.90
8008;DHT22;4049;49.468;11.200;2023-04-15T08:24:33;7.40;99.90
8008;DHT22;4049;49.468;11.200;2023-04-15T08:27:01;7.40;99.90
8008;DHT22;4049;49.468;11.200;2023-04-15T08:29:29;7.40;99.90
8008;DHT22;4049;49.468;11.200;2023-04-15T08:31:56;7.40;99.90
8008;DHT22;4049;49.468;11.200;2023-04-15T08:34:23;7.40;99.90
8008;DHT22;4049;49.468;11.200;2023-04-15T08:36:51;7.40;99.90
8008;DHT22;4049;49.468;11.200;2023-04-15T08:39:18;7.40;99.90
8008;DHT22;4049;49.468;11.200;2023-04-15T08:41:47;7.40;99.90
8008;DHT22;4049;49.468;11.200;2023-04-15T08:44:17;7.30;99.90
8008;DHT22;4049;49.468;11.200;2023-04-15T08:46:44;7.30;99.90
8008;DHT22;4049;49.468;11.200;2023-04-15T08:49:12;7.30;99.90
8008;DHT22;4049;49.468;11.200;2023-04-15T08:51:40;7.30;99.90
8008;DHT22;4049;49.468;11.200;2023-04-15T08:54:09;7.30;99.90
8008;DHT22;4049;49.468;11.200;2023-04-15T08:56:35;7.40;99.90
8008;DHT22;4049;49.468;11.200;2023-04-15T08:59:02;7.40;99.90
8008;DHT22;4049;49.468;11.200;2023-04-15T09:01:30;7.40;99.90
8008;DHT22;4049;49.468;11.200;2023-04-15T09:03:58;7.40;99.90
8008;DHT22;4049;49.468;11.200;2023-04-15T09:06:25;7.40;99.90
8008;DHT22;4049;49.468;11.200;2023-04-15T09:08:52;7.40;99.90
8008;DHT22;4049;49.468;11.200;2023-04-15T09:11:21;7.40;99.90
8008;DHT22;4049;49.468;11.200;2023-04-15T09:13:48;7.40;99.90
8008;DHT22;4049;49.468;11.200;2023-04-15T09:16:15;7.50;99.90
8008;DHT22;4049;49.468;11.200;2023-04-15T09:18:42;7.50;99.90
8008;DHT22;4049;49.468;11.200;2023-04-15T09:21:10;7.50;99.90
8008;DHT22;4049;49.468;11.200;2023-04-15T09:23:39;7.50;99.90
8008;DHT22;4049;49.468;11.200;2023-04-15T09:26:06;7.50;99.90
8008;DHT22;4049;49.468;11.200;2023-04-15T09:28:40;7.50;99.90
8008;DHT22;4049;49.468;11.200;2023-04-15T09:31:07;7.60;99.90
8008;DHT22;4049;49.468;11.200;2023-04-15T09:33:35;7.60;99.90
8008;DHT22;4049;49.468;11.200;2023-04-15T09:36:04;7.70;99.90
8008;DHT22;4049;49.468;11.200;2023-04-15T09:38:31;7.70;99.90
8008;DHT22;4049;49.468;11.200;2023-04-15T09:40:58;7.70;99.90
8008;DHT22;4049;49.468;11.200;2023-04-15T09:43:38;7.80;99.90
8008;DHT22;4049;49.468;11.200;2023-04-15T09:46:05;7.70;99.90
8008;DHT22;4049;49.468;11.200;2023-04-15T09:48:32;7.70;99.90
8008;DHT22;4049;49.468;11.200;2023-04-15T09:51:00;7.80;99.90
8008;DHT22;4049;49.468;11.200;2023-04-15T09:53:28;7.80;99.90
8008;DHT22;4049;49.468;11.200;2023-04-15T09:55:56;7.80;99.90
8008;DHT22;4049;49.468;11.200;2023-04-15T09:58:24;7.80;99.90
8008;DHT22;4049;49.468;11.200;2023-04-15T10:00:54;7.70;99.90
8008;DHT22;4049;49.468;11.200;2023-04-15T10:03:23;7.70;99.90
8008;DHT22;4049;49.468;11.200;2023-04-15T10:05:52;7.70;99.90
8008;DHT22;4049;49.468;11.200;2023-04-15T10:08:21;7.70;99.90
8008;DHT22;4049;49.468;11.200;2023-04-15T10:10:50;7.70;99.90
8008;DHT22;4049;49.468;11.200;2023-04-15T10:13:18;7.70;99.90
8008;DHT22;4049;49.468;11.200;2023-04-15T10:15:50;7.70;99.90
8008;DHT22;4049;49.468;11.200;2023-04-15T10:18:20;7.70;99.90
8008;DHT22;4049;49.468;11.200;2023-04-15T10:20:47;7.70;99.90
8008;DHT22;4049;49.468;11.200;2023-04-15T10:23:15;7.70;99.90
8008;DHT22;4049;49.468;11.200;2023-04-15T10:25:42;7.70;99.90
8008;DHT22;4049;49.468;11.200;2023-04-15T10:28:10;7.70;99.90
8008;DHT22;4049;49.468;11.200;2023-04-15T10:30:38;7.70;99.90
8008;DHT22;4049;49.468;11.200;2023-04-15T10:33:06;7.70;99.90
8008;DHT22;4049;49.468;11.200;2023-04-15T10:35:36;7.70;99.90
8008;DHT22;4049;49.468;11.200;2023-04-15T10:38:30;7.70;99.90
8008;DHT22;4049;49.468;11.200;2023-04-15T10:41:12;7.70;99.90
8008;DHT22;4049;49.468;11.200;2023-04-15T10:43:39;7.60;99.90
8008;DHT22;4049;49.468;11.200;2023-04-15T10:46:10;7.70;99.90
8008;DHT22;4049;49.468;11.200;2023-04-15T10:48:37;7.70;99.90
8008;DHT22;4049;49.468;11.200;2023-04-15T10:51:06;7.80;99.90
8008;DHT22;4049;49.468;11.200;2023-04-15T10:53:33;7.90;99.90
8008;DHT22;4049;49.468;11.200;2023-04-15T10:56:03;8.00;99.90
8008;DHT22;4049;49.468;11.200;2023-04-15T10:58:40;8.10;99.90
8008;DHT22;4049;49.468;11.200;2023-04-15T11:01:07;8.20;99.90
8008;DHT22;4049;49.468;11.200;2023-04-15T11:03:37;8.30;99.90
8008;DHT22;4049;49.468;11.200;2023-04-15T11:06:06;8.30;99.90
8008;DHT22;4049;49.468;11.200;2023-04-15T11:08:52;8.30;99.90
8008;DHT22;4049;49.468;11.200;2023-04-15T11:11:19;8.30;99.90
8008;DHT22;4049;49.468;11.200;2023-04-15T11:13:50;8.30;99.90
8008;DHT22;4049;49.468;11.200;2023-04-15T11:16:17;8.30;99.90
8008;DHT22;4049;49.468;11.200;2023-04-15T11:18:53;8.30;99.90
8008;DHT22;4049;49.468;11.200;2023-04-15T11:21:24;8.20;99.90
8008;DHT22;4049;49.468;11.200;2023-04-15T11:23:51;8.10;99.90
8008;DHT22;4049;49.468;11.200;2023-04-15T11:26:18;8.00;99.90
8008;DHT22;4049;49.468;11.200;2023-04-15T11:28:45;8.00;99.90
8008;DHT22;4049;49.468;11.200;2023-04-15T11:31:13;8.00;99.90
8008;DHT22;4049;49.468;11.200;2023-04-15T11:33:53;8.00;99.90
8008;DHT22;4049;49.468;11.200;2023-04-15T11:36:23;8.00;99.90
8008;DHT22;4049;49.468;11.200;2023-04-15T11:38:51;8.00;99.90
8008;DHT22;4049;49.468;11.200;2023-04-15T11:41:19;8.10;99.90
8008;DHT22;4049;49.468;11.200;2023-04-15T11:43:47;8.10;99.90
8008;DHT22;4049;49.468;11.200;2023-04-15T11:46:15;8.20;99.90
8008;DHT22;4049;49.468;11.200;2023-04-15T11:48:44;8.30;99.90
8008;DHT22;4049;49.468;11.200;2023-04-15T11:51:12;8.30;99.90
8008;DHT22;4049;49.468;11.200;2023-04-15T11:53:42;8.40;99.90
8008;DHT22;4049;49.468;11.200;2023-04-15T11:56:16;8.40;99.90
8008;DHT22;4049;49.468;11.200;2023-04-15T11:58:43;8.30;99.90
8008;DHT22;4049;49.468;11.200;2023-04-15T12:01:11;8.40;99.90
8008;DHT22;4049;49.468;11.200;2023-04-15T12:03:39;8.40;99.90
8008;DHT22;4049;49.468;11.200;2023-04-15T12:06:17;8.50;99.90
8008;DHT22;4049;49.468;11.200;2023-04-15T12:11:34;8.70;99.90
8008;DHT22;4049;49.468;11.200;2023-04-15T12:14:06;8.80;99.90
8008;DHT22;4049;49.468;11.200;2023-04-15T12:16:34;8.80;99.90
8008;DHT22;4049;49.468;11.200;2023-04-15T12:19:04;8.80;99.90
8008;DHT22;4049;49.468;11.200;2023-04-15T12:21:36;8.80;99.90
8008;DHT22;4049;49.468;11.200;2023-04-15T12:24:06;8.70;99.90
8008;DHT22;4049;49.468;11.200;2023-04-15T12:26:37;8.70;99.90
8008;DHT22;4049;49.468;11.200;2023-04-15T12:29:05;8.70;99.90
8008;DHT22;4049;49.468;11.200;2023-04-15T12:31:33;8.60;99.90
8008;DHT22;4049;49.468;11.200;2023-04-15T12:34:01;8.60;99.90
8008;DHT22;4049;49.468;11.200;2023-04-15T12:36:29;8.60;99.90
8008;DHT22;4049;49.468;11.200;2023-04-15T12:39:01;8.60;99.90
8008;DHT22;4049;49.468;11.200;2023-04-15T12:41:29;8.60;99.90
8008;DHT22;4049;49.468;11.200;2023-04-15T12:43:56;8.50;99.90
8008;DHT22;4049;49.468;11.200;2023-04-15T12:46:23;8.50;99.90
8008;DHT22;4049;49.468;11.200;2023-04-15T12:48:50;8.50;99.90
8008;DHT22;4049;49.468;11.200;2023-04-15T12:51:18;8.50;99.90
8008;DHT22;4049;49.468;11.200;2023-04-15T12:53:45;8.50;99.90
8008;DHT22;4049;49.468;11.200;2023-04-15T12:56:14;8.50;99.90
8008;DHT22;4049;49.468;11.200;2023-04-15T12:58:42;8.50;99.90
8008;DHT22;4049;49.468;11.200;2023-04-15T13:01:09;8.50;99.90
8008;DHT22;4049;49.468;11.200;2023-04-15T13:03:36;8.50;99.90
8008;DHT22;4049;49.468;11.200;2023-04-15T13:06:03;8.50;99.90
8008;DHT22;4049;49.468;11.200;2023-04-15T13:08:30;8.60;99.90
8008;DHT22;4049;49.468;11.200;2023-04-15T13:10:57;8.60;99.90
8008;DHT22;4049;49.468;11.200;2023-04-15T13:13:24;8.70;99.90
8008;DHT22;4049;49.468;11.200;2023-04-15T13:15:53;8.70;99.90
8008;DHT22;4049;49.468;11.200;2023-04-15T13:18:20;8.70;99.90
8008;DHT22;4049;49.468;11.200;2023-04-15T13:20:48;8.90;99.90
8008;DHT22;4049;49.468;11.200;2023-04-15T13:23:15;9.00;99.90
8008;DHT22;4049;49.468;11.200;2023-04-15T13:25:42;9.10;99.90
8008;DHT22;4049;49.468;11.200;2023-04-15T13:28:10;9.20;99.90
8008;DHT22;4049;49.468;11.200;2023-04-15T13:30:37;9.20;99.90
8008;DHT22;4049;49.468;11.200;2023-04-15T13:33:10;9.10;99.90
8008;DHT22;4049;49.468;11.200;2023-04-15T13:35:37;9.10;99.90
8008;DHT22;4049;49.468;11.200;2023-04-15T13:38:03;9.00;99.90
8008;DHT22;4049;49.468;11.200;2023-04-15T13:40:31;9.00;99.90
8008;DHT22;4049;49.468;11.200;2023-04-15T13:42:57;8.90;99.90
8008;DHT22;4049;49.468;11.200;2023-04-15T13:45:24;8.90;99.90
8008;DHT22;4049;49.468;11.200;2023-04-15T13:47:52;8.80;99.90
8008;DHT22;4049;49.468;11.200;2023-04-15T13:50:20;8.70;99.90
8008;DHT22;4049;49.468;11.200;2023-04-15T13:52:47;8.70;99.90
8008;DHT22;4049;49.468;11.200;2023-04-15T13:55:14;8.70;99.90
8008;DHT22;4049;49.468;11.200;2023-04-15T13:57:41;8.60;99.90
8008;DHT22;4049;49.468;11.200;2023-04-15T14:00:09;8.60;99.90
8008;DHT22;4049;49.468;11.200;2023-04-15T14:02:36;8.60;99.90
8008;DHT22;4049;49.468;11.200;2023-04-15T14:05:03;8.60;99.90
8008;DHT22;4049;49.468;11.200;2023-04-15T14:07:32;8.60;99.90
8008;DHT22;4049;49.468;11.200;2023-04-15T14:09:59;8.60;99.90
8008;DHT22;4049;49.468;11.200;2023-04-15T14:12:26;8.60;99.90
8008;DHT22;4049;49.468;11.200;2023-04-15T14:14:53;8.60;99.90
8008;DHT22;4049;49.468;11.200;2023-04-15T14:17:20;8.60;99.90
8008;DHT22;4049;49.468;11.200;2023-04-15T14:19:46;8.60;99.90
8008;DHT22;4049;49.468;11.200;2023-04-15T14:22:13;8.70;99.90
8008;DHT22;4049;49.468;11.200;2023-04-15T14:24:42;8.70;99.90
8008;DHT22;4049;49.468;11.200;2023-04-15T14:27:09;8.70;99.90
8008;DHT22;4049;49.468;11.200;2023-04-15T14:29:37;8.70;99.90
8008;DHT22;4049;49.468;11.200;2023-04-15T14:32:04;8.70;99.90
8008;DHT22;4049;49.468;11.200;2023-04-15T14:34:31;8.70;99.90
8008;DHT22;4049;49.468;11.200;2023-04-15T14:36:58;8.70;99.90
8008;DHT22;4049;49.468;11.200;2023-04-15T14:39:25;8.60;99.90
8008;DHT22;4049;49.468;11.200;2023-04-15T14:41:53;8.60;99.90
8008;DHT22;4049;49.468;11.200;2023-04-15T14:44:20;8.60;99.90
8008;DHT22;4049;49.468;11.200;2023-04-15T14:46:48;8.60;99.90
8008;DHT22;4049;49.468;11.200;2023-04-15T14:49:16;8.50;99.90
8008;DHT22;4049;49.468;11.200;2023-04-15T14:51:43;8.50;99.90
8008;DHT22;4049;49.468;11.200;2023-04-15T14:54:10;8.50;99.90
8008;DHT22;4049;49.468;11.200;2023-04-15T14:56:37;8.50;99.90
8008;DHT22;4049;49.468;11.200;2023-04-15T14:59:06;8.50;99.90
8008;DHT22;4049;49.468;11.200;2023-04-15T15:01:33;8.50;99.90
8008;DHT22;4049;49.468;11.200;2023-04-15T15:04:00;8.50;99.90
8008;DHT22;4049;49.468;11.200;2023-04-15T15:06:27;8.50;99.90
8008;DHT22;4049;49.468;11.200;2023-04-15T15:08:53;8.50;99.90
8008;DHT22;4049;49.468;11.200;2023-04-15T15:11:20;8.40;99.90
8008;DHT22;4049;49.468;11.200;2023-04-15T15:13:47;8.50;99.90
8008;DHT22;4049;49.468;11.200;2023-04-15T15:16:15;8.40;99.90
8008;DHT22;4049;49.468;11.200;2023-04-15T15:18:42;8.40;99.90
8008;DHT22;4049;49.468;11.200;2023-04-15T15:21:09;8.40;99.90
8008;DHT22;4049;49.468;11.200;2023-04-15T15:23:36;8.40;99.90
8008;DHT22;4049;49.468;11.200;2023-04-15T15:26:04;8.40;99.90
8008;DHT22;4049;49.468;11.200;2023-04-15T15:28:31;8.40;99.90
8008;DHT22;4049;49.468;11.200;2023-04-15T15:30:58;8.40;99.90
8008;DHT22;4049;49.468;11.200;2023-04-15T15:33:26;8.40;99.90
8008;DHT22;4049;49.468;11.200;2023-04-15T15:35:53;8.40;99.90
8008;DHT22;4049;49.468;11.200;2023-04-15T15:38:20;8.40;99.90
8008;DHT22;4049;49.468;11.200;2023-04-15T15:40:47;8.30;99.90
8008;DHT22;4049;49.468;11.200;2023-04-15T15:43:14;8.40;99.90
8008;DHT22;4049;49.468;11.200;2023-04-15T15:45:41;8.40;99.90
8008;DHT22;4049;49.468;11.200;2023-04-15T15:48:08;8.40;99.90
8008;DHT22;4049;49.468;11.200;2023-04-15T15:50:36;8.30;99.90
8008;DHT22;4049;49.468;11.200;2023-04-15T15:53:03;8.30;99.90
8008;DHT22;4049;49.468;11.200;2023-04-15T15:55:30;8.30;99.90
8008;DHT22;4049;49.468;11.200;2023-04-15T15:57:57;8.30;99.90
8008;DHT22;4049;49.468;11.200;2023-04-15T16:00:23;8.30;99.90
8008;DHT22;4049;49.468;11.200;2023-04-15T16:02:54;8.30;99.90
8008;DHT22;4049;49.468;11.200;2023-04-15T16:05:22;8.30;99.90
8008;DHT22;4049;49.468;11.200;2023-04-15T16:07:50;8.30;99.90